Time;durP1;ratioP1;P1;durP2;ratioP2;P2;SDS_P1;SDS_P2;PMS_P1;PMS_P2;Temp;Humidity;BMP_temperature;BMP_pressure;BME280_temperature;BME280_humidity;BME280_pressure;Samples;Min_cycle;Max_cycle;Signal;HPM_P1;HPM_P2
2021/07/20 00:00:34;;;;;;;0.40;0.28;;;;;;;-142.37;100.00;59669.53;4975286;28;20047;-68
2021/07/20 00:02:59;;;;;;;2.45;0.40;;;;;;;-142.37;100.00;59669.53;4975138;28;20023;-68
2021/07/20 00:05:29;;;;;;;1.75;0.60;;;;;;;-142.37;100.00;59669.53;4975206;28;20429;-69
2021/07/20 00:07:57;;;;;;;0.90;0.60;;;;;;;-142.37;100.00;59669.53;4975035;28;20037;-68
2021/07/20 00:10:46;;;;;;;0.30;0.30;;;;;;;-142.37;100.00;59669.53;4975483;28;20053;-68
2021/07/20 00:13:12;;;;;;;1.98;0.63;;;;;;;-142.37;100.00;59669.53;4974142;28;20084;-69
2021/07/20 00:15:38;;;;;;;1.15;0.60;;;;;;;-142.37;100.00;59669.53;4973958;28;20030;-68
2021/07/20 00:18:10;;;;;;;0.30;0.30;;;;;;;-142.37;100.00;59669.53;4975012;28;20022;-68
2021/07/20 00:20:36;;;;;;;0.30;0.30;;;;;;;-142.37;100.00;59669.53;4975053;28;20022;-67
2021/07/20 00:23:04;;;;;;;0.63;0.38;;;;;;;-142.37;100.00;59669.53;4974821;28;20041;-68
2021/07/20 00:25:29;;;;;;;0.50;0.30;;;;;;;-142.37;100.00;59669.53;4975162;28;20023;-67
2021/07/20 00:27:56;;;;;;;1.20;0.40;;;;;;;-142.37;100.00;59669.53;4974386;28;20480;-67
2021/07/20 00:30:22;;;;;;;0.95;0.30;;;;;;;-142.37;100.00;59669.53;4973661;28;20069;-68
2021/07/20 00:32:48;;;;;;;0.52;0.20;;;;;;;-142.37;100.00;59669.53;4973747;28;20042;-68
2021/07/20 00:35:14;;;;;;;1.17;0.40;;;;;;;-142.37;100.00;59669.53;4974760;28;20030;-68
2021/07/20 00:37:41;;;;;;;0.77;0.30;;;;;;;-142.37;100.00;59669.53;4974760;28;20034;-69
2021/07/20 00:40:10;;;;;;;1.02;0.40;;;;;;;-142.37;100.00;59669.53;4973133;28;20062;-70
2021/07/20 00:42:35;;;;;;;0.85;0.38;;;;;;;-142.37;100.00;59669.53;4974873;28;20073;-68
2021/07/20 00:45:03;;;;;;;1.50;0.60;;;;;;;-142.37;100.00;59669.53;4974685;28;20105;-69
2021/07/20 00:47:28;;;;;;;1.05;0.40;;;;;;;-142.37;100.00;59669.53;4983225;28;20015;-70
2021/07/20 00:49:53;;;;;;;1.70;0.30;;;;;;;-142.37;100.00;59669.53;4994141;28;20022;-67
2021/07/20 00:52:19;;;;;;;0.45;0.20;;;;;;;-142.37;100.00;59669.53;4994015;28;20030;-67
2021/07/20 00:54:45;;;;;;;0.77;0.50;;;;;;;-142.37;100.00;59669.53;4993948;28;20373;-68
2021/07/20 00:57:11;;;;;;;1.23;0.50;;;;;;;-142.37;100.00;59669.53;4993866;28;20031;-68
2021/07/20 00:59:37;;;;;;;0.45;0.43;;;;;;;-142.37;100.00;59669.53;5005956;28;20053;-69
2021/07/20 01:02:05;;;;;;;0.38;0.20;;;;;;;-142.37;100.00;59669.53;5012977;28;20022;-69
2021/07/20 01:04:32;;;;;;;1.27;0.50;;;;;;;-142.37;100.00;59669.53;5013569;28;20043;-68
2021/07/20 01:07:00;;;;;;;0.85;0.40;;;;;;;-142.37;100.00;59669.53;5013440;28;20025;-68
2021/07/20 01:09:27;;;;;;;0.75;0.32;;;;;;;-142.37;100.00;59669.53;5013280;28;20026;-68
2021/07/20 01:11:55;;;;;;;1.85;0.52;;;;;;;-142.37;100.00;59669.53;5013014;28;20049;-68
2021/07/20 01:14:21;;;;;;;1.30;0.38;;;;;;;-142.37;100.00;59669.53;5013604;28;20030;-68
2021/07/20 01:16:49;;;;;;;0.70;0.35;;;;;;;-142.37;100.00;59669.53;5013490;28;20021;-69
2021/07/20 01:19:16;;;;;;;0.60;0.30;;;;;;;-142.37;100.00;59669.53;5013495;28;20030;-70
2021/07/20 01:21:43;;;;;;;1.30;0.65;;;;;;;-142.37;100.00;59669.53;5013046;28;20049;-70
2021/07/20 01:24:14;;;;;;;0.52;0.30;;;;;;;-142.37;100.00;59669.53;4995722;28;20029;-69
2021/07/20 01:26:41;;;;;;;1.08;0.40;;;;;;;-142.37;100.00;59669.53;5016894;28;20112;-70
2021/07/20 01:29:07;;;;;;;0.50;0.38;;;;;;;-142.37;100.00;59669.53;5016831;28;20491;-68
2021/07/20 01:31:36;;;;;;;1.75;0.57;;;;;;;-142.37;100.00;59669.53;4999346;28;20116;-69
2021/07/20 01:34:06;;;;;;;0.85;0.40;;;;;;;-142.37;100.00;59669.53;5016491;28;20559;-68
2021/07/20 01:36:33;;;;;;;1.95;0.88;;;;;;;-142.37;100.00;59669.53;5016723;28;20026;-68
2021/07/20 01:39:02;;;;;;;0.63;0.50;;;;;;;-142.37;100.00;59669.53;5016717;28;20091;-67
2021/07/20 01:41:29;;;;;;;1.10;0.40;;;;;;;-142.37;100.00;59669.53;5016767;28;20025;-69
2021/07/20 01:44:03;;;;;;;0.45;0.40;;;;;;;-142.37;100.00;59669.53;5016465;28;20025;-68
2021/07/20 01:46:33;;;;;;;0.40;0.40;;;;;;;-142.37;100.00;59669.53;5016408;28;20077;-67
2021/07/20 01:49:01;;;;;;;1.30;0.40;;;;;;;-142.37;100.00;59669.53;5016326;28;20032;-67
2021/07/20 01:51:27;;;;;;;1.02;0.55;;;;;;;-142.37;100.00;59669.53;5016591;28;20528;-69
2021/07/20 01:53:53;;;;;;;1.23;0.38;;;;;;;-142.37;100.00;59669.53;5015975;28;20080;-69
2021/07/20 01:56:21;;;;;;;0.95;0.50;;;;;;;-142.37;100.00;59669.53;5016222;28;20049;-68
2021/07/20 01:58:47;;;;;;;0.38;0.20;;;;;;;-142.37;100.00;59669.53;5016128;28;20061;-68
2021/07/20 02:01:19;;;;;;;0.45;0.28;;;;;;;-142.37;100.00;59669.53;5015781;28;20426;-68
2021/07/20 02:04:15;;;;;;;1.25;0.32;;;;;;;-142.37;100.00;59669.53;5016141;28;20038;-69
2021/07/20 02:09:31;;;;;;;0.35;0.28;;;;;;;-142.37;100.00;59669.53;5016334;28;20036;-68
2021/07/20 02:11:58;;;;;;;1.65;0.30;;;;;;;-142.37;100.00;59669.53;5016134;28;20033;-68
2021/07/20 02:14:31;;;;;;;2.05;0.40;;;;;;;-142.37;100.00;59669.53;5015996;28;20021;-68
2021/07/20 02:17:00;;;;;;;0.73;0.20;;;;;;;-142.37;100.00;59669.53;5014760;28;20024;-69
2021/07/20 02:19:33;;;;;;;0.63;0.35;;;;;;;-142.37;100.00;59669.53;4996822;28;20027;-69
2021/07/20 02:21:59;;;;;;;1.00;0.20;;;;;;;-142.37;100.00;59669.53;4996637;28;20022;-69
2021/07/20 02:24:28;;;;;;;1.65;0.47;;;;;;;-142.37;100.00;59669.53;4996472;28;20101;-70
2021/07/20 02:26:54;;;;;;;1.67;0.20;;;;;;;-142.37;100.00;59669.53;4995990;28;20113;-68
2021/07/20 02:29:22;;;;;;;0.82;0.30;;;;;;;-142.37;100.00;59669.53;4995911;28;20026;-69
2021/07/20 02:31:50;;;;;;;0.47;0.40;;;;;;;-142.37;100.00;59669.53;4996151;28;20077;-68
2021/07/20 02:34:17;;;;;;;0.45;0.45;;;;;;;-142.37;100.00;59669.53;4978487;28;20034;-70
2021/07/20 02:36:43;;;;;;;2.92;0.65;;;;;;;-142.37;100.00;59669.53;4978027;28;20038;-68
2021/07/20 02:39:12;;;;;;;0.70;0.28;;;;;;;-142.37;100.00;59669.53;4996031;28;20034;-67
2021/07/20 02:41:39;;;;;;;1.92;0.40;;;;;;;-142.37;100.00;59669.53;4995827;28;20062;-67
2021/07/20 02:44:09;;;;;;;1.80;0.40;;;;;;;-142.37;100.00;59669.53;4995925;28;20413;-68
2021/07/20 02:46:37;;;;;;;0.82;0.40;;;;;;;-142.37;100.00;59669.53;4995704;28;20034;-68
2021/07/20 02:49:03;;;;;;;1.58;0.80;;;;;;;-142.37;100.00;59669.53;4995615;28;20026;-69
2021/07/20 02:51:29;;;;;;;0.80;0.40;;;;;;;-142.37;100.00;59669.53;4996078;28;20113;-68
2021/07/20 02:53:59;;;;;;;1.10;0.52;;;;;;;-142.37;100.00;59669.53;4995663;28;20355;-69
2021/07/20 02:56:25;;;;;;;0.63;0.30;;;;;;;-142.37;100.00;59669.53;4995286;28;20046;-68
2021/07/20 02:58:53;;;;;;;1.38;0.60;;;;;;;-142.37;100.00;59669.53;4995639;28;20043;-68
2021/07/20 03:01:20;;;;;;;0.32;0.28;;;;;;;-142.37;100.00;59669.53;4995276;28;20053;-68
2021/07/20 03:03:45;;;;;;;0.75;0.35;;;;;;;-142.37;100.00;59669.53;4995522;28;20484;-68
2021/07/20 03:06:12;;;;;;;0.68;0.50;;;;;;;-142.37;100.00;59669.53;4995662;28;20069;-70
2021/07/20 03:08:41;;;;;;;0.75;0.52;;;;;;;-142.37;100.00;59669.53;4995239;28;20034;-71
2021/07/20 03:11:10;;;;;;;0.70;0.40;;;;;;;-142.37;100.00;59669.53;4995321;28;20504;-70
2021/07/20 03:13:41;;;;;;;0.73;0.40;;;;;;;-142.37;100.00;59669.53;4994835;28;20023;-69
2021/07/20 03:16:08;;;;;;;1.25;0.40;;;;;;;-142.37;100.00;59669.53;4995523;28;20030;-69
2021/07/20 03:18:36;;;;;;;0.38;0.38;;;;;;;-142.37;100.00;59669.53;4994766;28;20054;-68
2021/07/20 03:21:04;;;;;;;1.20;0.45;;;;;;;-142.37;100.00;59669.53;4995169;28;20026;-68
2021/07/20 03:23:30;;;;;;;0.63;0.30;;;;;;;-142.37;100.00;59669.53;4995254;28;20033;-68
2021/07/20 03:25:58;;;;;;;0.95;0.40;;;;;;;-142.37;100.00;59669.53;4994871;28;20026;-68
2021/07/20 03:28:25;;;;;;;1.38;0.28;;;;;;;-142.37;100.00;59669.53;4995268;28;20025;-68
2021/07/20 03:30:51;;;;;;;0.68;0.50;;;;;;;-142.37;100.00;59669.53;4995006;28;20049;-69
2021/07/20 03:33:21;;;;;;;0.77;0.50;;;;;;;-142.37;100.00;59669.53;4994723;28;20527;-70
2021/07/20 03:35:49;;;;;;;0.95;0.38;;;;;;;-142.37;100.00;59669.53;4994856;28;20157;-69
2021/07/20 03:38:17;;;;;;;1.65;0.40;;;;;;;-142.37;100.00;59669.53;4994818;28;20466;-69
2021/07/20 03:40:46;;;;;;;0.70;0.30;;;;;;;-142.37;100.00;59669.53;4994886;28;20030;-69
2021/07/20 03:43:13;;;;;;;0.30;0.20;;;;;;;-142.37;100.00;59669.53;4994359;28;20028;-68
2021/07/20 03:45:39;;;;;;;0.70;0.30;;;;;;;-142.37;100.00;59669.53;4994529;28;20381;-69
2021/07/20 03:48:06;;;;;;;1.50;0.30;;;;;;;-142.37;100.00;59669.53;4994317;28;20073;-69
2021/07/20 03:50:31;;;;;;;1.00;0.40;;;;;;;-142.37;100.00;59669.53;4994735;28;20026;-70
2021/07/20 03:52:58;;;;;;;1.40;0.63;;;;;;;-142.37;100.00;59669.53;5000153;28;20026;-70
2021/07/20 03:55:23;;;;;;;0.47;0.20;;;;;;;-142.37;100.00;59669.53;5014051;28;20361;-70
2021/07/20 03:57:49;;;;;;;1.60;0.57;;;;;;;-142.37;100.00;59669.53;5014428;28;20028;-70
2021/07/20 04:00:15;;;;;;;0.63;0.30;;;;;;;-142.37;100.00;59669.53;5013562;28;20042;-68
2021/07/20 04:02:49;;;;;;;0.55;0.30;;;;;;;-142.37;100.00;59669.53;5014257;28;20072;-68
2021/07/20 04:05:16;;;;;;;2.15;0.20;;;;;;;-142.37;100.00;59669.53;5014001;28;20056;-68
2021/07/20 04:07:44;;;;;;;1.33;0.38;;;;;;;-142.37;100.00;59669.53;5013668;28;20061;-68
2021/07/20 04:10:11;;;;;;;0.50;0.40;;;;;;;-142.37;100.00;59669.53;5013920;28;20112;-69
2021/07/20 04:12:38;;;;;;;1.65;0.43;;;;;;;-142.37;100.00;59669.53;5013922;28;20053;-69
2021/07/20 04:15:04;;;;;;;0.45;0.30;;;;;;;-142.37;100.00;59669.53;5013845;28;20030;-69
2021/07/20 04:17:31;;;;;;;0.75;0.30;;;;;;;-142.37;100.00;59669.53;4995569;28;20042;-69
2021/07/20 04:19:57;;;;;;;1.30;0.43;;;;;;;-142.37;100.00;59669.53;5014098;28;20034;-69
2021/07/20 04:22:23;;;;;;;1.08;0.35;;;;;;;-142.37;100.00;59669.53;5013738;28;20030;-70
2021/07/20 04:24:50;;;;;;;0.68;0.30;;;;;;;-142.37;100.00;59669.53;5013729;28;20029;-70
2021/07/20 04:27:17;;;;;;;1.17;0.32;;;;;;;-142.37;100.00;59669.53;5013685;28;20127;-70
2021/07/20 04:29:43;;;;;;;0.85;0.20;;;;;;;-142.37;100.00;59669.53;5013666;28;20057;-71
2021/07/20 04:32:09;;;;;;;0.63;0.30;;;;;;;-142.37;100.00;59669.53;5013637;28;20128;-70
2021/07/20 04:34:36;;;;;;;0.63;0.40;;;;;;;-142.37;100.00;59669.53;5013949;28;20022;-70
2021/07/20 04:37:04;;;;;;;0.50;0.20;;;;;;;-142.37;100.00;59669.53;5013930;28;20034;-68
2021/07/20 04:39:33;;;;;;;0.40;0.20;;;;;;;-142.37;100.00;59669.53;5013533;28;20033;-68
2021/07/20 04:41:59;;;;;;;0.35;0.20;;;;;;;-142.37;100.00;59669.53;5013793;28;20025;-68
2021/07/20 04:44:25;;;;;;;0.85;0.32;;;;;;;-142.37;100.00;59669.53;5013600;28;20113;-68
2021/07/20 04:46:50;;;;;;;2.53;0.47;;;;;;;-142.37;100.00;59669.53;5013741;28;20029;-68
2021/07/20 04:49:16;;;;;;;0.90;0.32;;;;;;;-142.37;100.00;59669.53;5013529;28;20483;-69
2021/07/20 04:51:42;;;;;;;1.85;0.40;;;;;;;-142.37;100.00;59669.53;5014071;28;20033;-69
2021/07/20 04:54:08;;;;;;;1.10;0.30;;;;;;;-142.37;100.00;59669.53;5013118;28;20113;-69
2021/07/20 04:56:34;;;;;;;1.00;0.30;;;;;;;-142.37;100.00;59669.53;5013530;28;20053;-68
2021/07/20 04:58:59;;;;;;;0.32;0.10;;;;;;;-142.37;100.00;59669.53;5013138;28;20488;-69
2021/07/20 05:01:25;;;;;;;2.25;0.38;;;;;;;-142.37;100.00;59669.53;5016855;28;20532;-68
2021/07/20 05:03:51;;;;;;;0.65;0.22;;;;;;;-142.37;100.00;59669.53;5017655;28;20026;-68
2021/07/20 05:06:19;;;;;;;0.70;0.20;;;;;;;-142.37;100.00;59669.53;5017285;28;20025;-69
2021/07/20 05:08:47;;;;;;;1.40;0.10;;;;;;;-142.37;100.00;59669.53;5017558;28;20026;-70
2021/07/20 05:11:13;;;;;;;0.38;0.30;;;;;;;-142.37;100.00;59669.53;5017128;28;20072;-69
2021/07/20 05:13:39;;;;;;;1.40;0.28;;;;;;;-142.37;100.00;59669.53;5017256;28;20037;-70
2021/07/20 05:16:06;;;;;;;0.28;0.10;;;;;;;-142.37;100.00;59669.53;4999438;28;20026;-70
2021/07/20 05:18:36;;;;;;;0.90;0.55;;;;;;;-142.37;100.00;59669.53;4987239;28;20026;-70
2021/07/20 05:21:02;;;;;;;1.98;0.55;;;;;;;-142.37;100.00;59669.53;4996316;28;20060;-69
2021/07/20 05:23:29;;;;;;;0.82;0.20;;;;;;;-142.37;100.00;59669.53;4997548;28;20022;-69
2021/07/20 05:25:59;;;;;;;0.82;0.30;;;;;;;-142.37;100.00;59669.53;4997478;28;20069;-69
2021/07/20 05:28:26;;;;;;;0.57;0.38;;;;;;;-142.37;100.00;59669.53;4980320;28;20022;-68
2021/07/20 05:30:57;;;;;;;0.80;0.15;;;;;;;-142.37;100.00;59669.53;4997528;28;20060;-67
2021/07/20 05:33:23;;;;;;;1.02;0.20;;;;;;;-142.37;100.00;59669.53;4997540;28;20058;-67
2021/07/20 05:35:52;;;;;;;1.50;0.40;;;;;;;-142.37;100.00;59669.53;4997324;28;20073;-67
2021/07/20 05:38:18;;;;;;;0.55;0.30;;;;;;;-142.37;100.00;59669.53;4996933;28;20422;-67
2021/07/20 05:40:43;;;;;;;0.68;0.20;;;;;;;-142.37;100.00;59669.53;4996958;28;20068;-67
2021/07/20 05:43:10;;;;;;;0.50;0.20;;;;;;;-142.37;100.00;59669.53;4996951;28;20033;-68
2021/07/20 05:45:36;;;;;;;1.05;0.30;;;;;;;-142.37;100.00;59669.53;4997054;28;20113;-68
2021/07/20 05:48:03;;;;;;;0.82;0.20;;;;;;;-142.37;100.00;59669.53;5010078;28;20426;-68
2021/07/20 05:50:29;;;;;;;0.32;0.10;;;;;;;-142.37;100.00;59669.53;5016601;28;20056;-68
2021/07/20 05:53:00;;;;;;;1.08;0.20;;;;;;;-142.37;100.00;59669.53;5016312;28;20061;-69
2021/07/20 05:55:26;;;;;;;0.45;0.40;;;;;;;-142.37;100.00;59669.53;5016627;28;20049;-68
2021/07/20 05:57:53;;;;;;;1.10;0.30;;;;;;;-142.37;100.00;59669.53;5016073;28;20096;-67
2021/07/20 06:00:25;;;;;;;0.75;0.20;;;;;;;-142.37;100.00;59669.53;5015951;28;20050;-67
2021/07/20 06:02:52;;;;;;;1.42;0.40;;;;;;;-142.37;100.00;59669.53;5016270;28;20017;-67
2021/07/20 06:05:20;;;;;;;0.10;0.10;;;;;;;-142.37;100.00;59669.53;5016190;28;20036;-68
2021/07/20 06:07:47;;;;;;;1.15;0.20;;;;;;;-142.37;100.00;59669.53;5016346;28;20025;-68
2021/07/20 06:10:17;;;;;;;0.50;0.28;;;;;;;-142.37;100.00;59669.53;5015995;28;20036;-66
2021/07/20 06:12:43;;;;;;;1.08;0.30;;;;;;;-142.37;100.00;59669.53;5015076;28;20029;-67
2021/07/20 06:15:10;;;;;;;0.55;0.30;;;;;;;-142.37;100.00;59669.53;5015984;28;20037;-67
2021/07/20 06:17:36;;;;;;;0.63;0.32;;;;;;;-142.37;100.00;59669.53;5011539;28;20476;-66
2021/07/20 06:20:01;;;;;;;0.60;0.20;;;;;;;-142.37;100.00;59669.53;4996525;28;20054;-67
2021/07/20 06:22:34;;;;;;;0.20;0.10;;;;;;;-142.37;100.00;59669.53;4996561;28;20038;-67
2021/07/20 06:25:01;;;;;;;0.88;0.38;;;;;;;-142.37;100.00;59669.53;4996427;28;20063;-66
2021/07/20 06:27:28;;;;;;;1.45;0.50;;;;;;;-142.37;100.00;59669.53;4996252;28;20027;-66
2021/07/20 06:29:56;;;;;;;1.00;0.28;;;;;;;-142.37;100.00;59669.53;4995893;28;20026;-67
2021/07/20 06:32:23;;;;;;;1.58;0.60;;;;;;;-142.37;100.00;59669.53;4995911;28;20030;-67
2021/07/20 06:34:49;;;;;;;0.88;0.22;;;;;;;-142.37;100.00;59669.53;4996280;28;20045;-68
2021/07/20 06:37:16;;;;;;;1.00;0.40;;;;;;;-142.37;100.00;59669.53;4996091;28;20031;-68
2021/07/20 06:39:43;;;;;;;0.85;0.10;;;;;;;-142.37;100.00;59669.53;4996110;28;20026;-68
2021/07/20 06:42:09;;;;;;;0.57;0.38;;;;;;;-142.37;100.00;59669.53;4995797;28;20106;-68
2021/07/20 06:44:36;;;;;;;0.32;0.30;;;;;;;-142.37;100.00;59669.53;4995764;28;20026;-68
2021/07/20 06:47:03;;;;;;;0.38;0.20;;;;;;;-142.37;100.00;59669.53;4995919;28;20092;-68
2021/07/20 06:49:29;;;;;;;0.43;0.32;;;;;;;-142.37;100.00;59669.53;4995873;28;20042;-67
2021/07/20 06:51:55;;;;;;;1.73;0.60;;;;;;;-142.37;100.00;59669.53;4995813;28;20026;-67
2021/07/20 06:54:21;;;;;;;0.88;0.20;;;;;;;-142.37;100.00;59669.53;4999272;28;20041;-67
2021/07/20 06:56:50;;;;;;;0.70;0.13;;;;;;;-142.37;100.00;59669.53;5015191;28;20511;-66
2021/07/20 06:59:18;;;;;;;1.00;0.30;;;;;;;-142.37;100.00;59669.53;5014589;28;20057;-66
2021/07/20 07:01:44;;;;;;;0.38;0.10;;;;;;;-142.37;100.00;59669.53;5015327;28;20029;-66
2021/07/20 07:04:28;;;;;;;0.95;0.38;;;;;;;-142.37;100.00;59669.53;5013479;28;20110;-66
2021/07/20 07:06:56;;;;;;;0.63;0.30;;;;;;;-142.37;100.00;59669.53;5014731;28;20026;-66
2021/07/20 07:09:27;;;;;;;0.57;0.20;;;;;;;-142.37;100.00;59669.53;5015133;28;20065;-66
2021/07/20 07:11:53;;;;;;;0.35;0.30;;;;;;;-142.37;100.00;59669.53;5014948;28;20025;-66
2021/07/20 07:14:20;;;;;;;0.40;0.20;;;;;;;-142.37;100.00;59669.53;5015075;28;20472;-66
2021/07/20 07:16:47;;;;;;;0.57;0.25;;;;;;;-142.37;100.00;59669.53;5014935;28;20044;-66
2021/07/20 07:19:19;;;;;;;1.80;0.30;;;;;;;-142.37;100.00;59669.53;5014525;28;20469;-67
2021/07/20 07:21:46;;;;;;;1.85;0.30;;;;;;;-142.37;100.00;59669.53;5014985;28;20030;-67
2021/07/20 07:24:14;;;;;;;0.75;0.20;;;;;;;-142.37;100.00;59669.53;5014360;28;20033;-67
2021/07/20 07:26:41;;;;;;;1.08;0.32;;;;;;;-142.37;100.00;59669.53;5014958;28;20480;-67
2021/07/20 07:29:09;;;;;;;0.77;0.22;;;;;;;-142.37;100.00;59669.53;5014747;28;20065;-67
2021/07/20 07:31:35;;;;;;;1.83;0.43;;;;;;;-142.37;100.00;59669.53;5014368;28;20032;-68
2021/07/20 07:34:00;;;;;;;0.73;0.40;;;;;;;-142.37;100.00;59669.53;5014740;28;20041;-68
2021/07/20 07:36:27;;;;;;;0.47;0.15;;;;;;;-142.37;100.00;59669.53;5014305;28;20022;-68
2021/07/20 07:38:55;;;;;;;0.73;0.40;;;;;;;-142.37;100.00;59669.53;5014582;28;20050;-68
2021/07/20 07:41:23;;;;;;;3.47;0.88;;;;;;;-142.37;100.00;59669.53;5014309;28;20033;-66
2021/07/20 07:43:50;;;;;;;0.85;0.70;;;;;;;-142.37;100.00;59669.53;5014680;28;20026;-66
2021/07/20 07:46:18;;;;;;;0.88;0.30;;;;;;;-142.37;100.00;59669.53;5013939;28;20093;-66
2021/07/20 07:48:44;;;;;;;0.30;0.30;;;;;;;-142.37;100.00;59669.53;5014473;28;20054;-67
2021/07/20 07:51:11;;;;;;;0.73;0.30;;;;;;;-142.37;100.00;59669.53;5014550;28;20026;-67
2021/07/20 07:53:40;;;;;;;0.68;0.40;;;;;;;-142.37;100.00;59669.53;5023451;28;20555;-67
2021/07/20 07:56:05;;;;;;;0.75;0.20;;;;;;;-142.37;100.00;59669.53;5033574;28;20037;-67
2021/07/20 07:58:31;;;;;;;0.65;0.20;;;;;;;-142.37;100.00;59669.53;5033661;28;20042;-68
2021/07/20 08:01:02;;;;;;;0.63;0.40;;;;;;;-142.37;100.00;59669.53;5001212;28;20030;-68
2021/07/20 08:03:30;;;;;;;0.95;0.50;;;;;;;-142.37;100.00;59669.53;4994069;28;20061;-67
2021/07/20 08:05:57;;;;;;;0.38;0.20;;;;;;;-142.37;100.00;59669.53;4994598;28;20024;-67
2021/07/20 08:08:23;;;;;;;1.30;0.50;;;;;;;-142.37;100.00;59669.53;4994372;28;20033;-67
2021/07/20 08:10:50;;;;;;;0.98;0.43;;;;;;;-142.37;100.00;59669.53;4994196;28;20088;-68
2021/07/20 08:13:18;;;;;;;1.23;0.40;;;;;;;-142.37;100.00;59669.53;4994412;28;20054;-68
2021/07/20 08:15:47;;;;;;;0.45;0.40;;;;;;;-142.37;100.00;59669.53;4993973;28;20026;-67
2021/07/20 08:18:12;;;;;;;0.52;0.32;;;;;;;-142.37;100.00;59669.53;5002808;28;20037;-68
2021/07/20 08:20:39;;;;;;;2.45;0.38;;;;;;;-142.37;100.00;59669.53;5014267;28;20033;-66
2021/07/20 08:23:04;;;;;;;0.80;0.30;;;;;;;-142.37;100.00;59669.53;5013891;28;20025;-67
2021/07/20 08:25:42;;;;;;;0.50;0.40;;;;;;;-142.37;100.00;59669.53;5014140;28;20519;-67
2021/07/20 08:28:09;;;;;;;1.05;0.30;;;;;;;-142.37;100.00;59669.53;5013540;28;20029;-67
2021/07/20 08:30:37;;;;;;;1.05;0.55;;;;;;;-142.37;100.00;59669.53;5013928;28;20030;-66
2021/07/20 08:33:06;;;;;;;1.50;0.40;;;;;;;-142.37;100.00;59669.53;5013643;28;20029;-67
2021/07/20 08:35:32;;;;;;;0.50;0.30;;;;;;;-142.37;100.00;59669.53;5012845;28;20416;-67
2021/07/20 08:38:06;;;;;;;2.03;0.63;;;;;;;-142.37;100.00;59669.53;4995982;28;20057;-66
2021/07/20 08:40:49;;;;;;;1.15;0.52;;;;;;;-142.37;100.00;59669.53;5013698;28;20076;-67
2021/07/20 08:43:53;;;;;;;0.77;0.38;;;;;;;-142.37;100.00;59669.53;5013986;28;20045;-66
2021/07/20 08:46:37;;;;;;;1.10;0.40;;;;;;;-142.37;100.00;59669.53;5013808;28;20109;-66
2021/07/20 08:49:26;;;;;;;0.63;0.35;;;;;;;-142.37;100.00;59669.53;5013605;28;20033;-66
2021/07/20 08:52:01;;;;;;;0.82;0.50;;;;;;;-142.37;100.00;59669.53;5005575;28;20108;-66
2021/07/20 08:54:33;;;;;;;2.30;0.57;;;;;;;-142.37;100.00;59669.53;5013569;28;20030;-65
2021/07/20 08:57:05;;;;;;;0.35;0.30;;;;;;;-142.37;100.00;59669.53;5013722;28;20022;-67
2021/07/20 08:59:47;;;;;;;0.52;0.40;;;;;;;-142.37;100.00;59669.53;5043798;23;20071;-66
2021/07/20 09:02:31;;;;;;;2.15;0.63;;;;;;;-142.37;100.00;59669.53;5044542;28;20496;-66
2021/07/20 09:05:04;;;;;;;2.65;0.30;;;;;;;-142.37;100.00;59669.53;5032936;28;20026;-66
2021/07/20 09:07:39;;;;;;;1.17;0.30;;;;;;;-142.37;100.00;59669.53;5044738;28;20040;-67
2021/07/20 09:10:10;;;;;;;1.48;0.32;;;;;;;-142.37;100.00;59669.53;5041671;28;20388;-66
2021/07/20 09:12:39;;;;;;;2.72;0.50;;;;;;;-142.37;100.00;59669.53;5032278;28;20420;-67
2021/07/20 09:15:10;;;;;;;0.35;0.35;;;;;;;-142.37;100.00;59669.53;5032395;28;20025;-67
2021/07/20 09:18:15;;;;;;;2.70;0.60;;;;;;;-142.37;100.00;59669.53;5032990;28;20036;-66
2021/07/20 09:20:43;;;;;;;1.20;0.70;;;;;;;-142.37;100.00;59669.53;5032531;28;20033;-66
2021/07/20 09:23:16;;;;;;;1.55;0.70;;;;;;;-142.37;100.00;59669.53;5033028;28;20029;-67
2021/07/20 09:26:16;;;;;;;0.95;0.40;;;;;;;-142.37;100.00;59669.53;5033078;28;20022;-67
2021/07/20 09:28:50;;;;;;;1.17;0.50;;;;;;;-142.37;100.00;59669.53;5033173;28;20029;-66
2021/07/20 09:31:43;;;;;;;0.90;0.40;;;;;;;-142.37;100.00;59669.53;5032905;28;20443;-67
2021/07/20 09:34:26;;;;;;;0.95;0.50;;;;;;;-142.37;100.00;59669.53;5032750;28;20029;-66
2021/07/20 09:37:10;;;;;;;1.27;0.40;;;;;;;-142.37;100.00;59669.53;5032987;28;20416;-67
2021/07/20 09:40:26;;;;;;;0.70;0.63;;;;;;;-142.37;100.00;59669.53;5032703;28;20075;-67
2021/07/20 09:43:04;;;;;;;0.88;0.40;;;;;;;-142.37;100.00;59669.53;4972340;28;20118;-65
2021/07/20 09:45:39;;;;;;;0.30;0.15;;;;;;;-142.37;100.00;59669.53;4972463;28;20069;-65
2021/07/20 09:48:32;;;;;;;0.68;0.52;;;;;;;-142.37;100.00;59669.53;4975376;28;20142;-66
2021/07/20 09:51:30;;;;;;;1.08;0.43;;;;;;;-142.37;100.00;59669.53;4975530;28;20038;-67
2021/07/20 09:54:43;;;;;;;1.50;0.20;;;;;;;-142.37;100.00;59669.53;4959037;28;20035;-67
2021/07/20 09:57:53;;;;;;;0.47;0.20;;;;;;;-142.37;100.00;59669.53;4917626;29;20044;-68
2021/07/20 10:00:47;;;;;;;0.30;0.30;;;;;;;-142.37;100.00;59669.53;4860539;29;20517;-66
2021/07/20 10:03:20;;;;;;;0.80;0.47;;;;;;;-142.37;100.00;59669.53;4858563;29;20158;-66
2021/07/20 10:05:54;;;;;;;1.70;0.35;;;;;;;-142.37;100.00;59669.53;4861290;29;20064;-66
2021/07/20 10:08:38;;;;;;;1.05;0.47;;;;;;;-142.37;100.00;59669.53;4861479;29;20057;-66
2021/07/20 10:11:24;;;;;;;0.80;0.30;;;;;;;-142.37;100.00;59669.53;4861409;29;20072;-67
2021/07/20 10:14:02;;;;;;;1.45;0.40;;;;;;;-142.37;100.00;59669.53;4861203;29;20117;-65
2021/07/20 10:17:05;;;;;;;0.70;0.32;;;;;;;-142.37;100.00;59669.53;4861243;29;20034;-66
2021/07/20 10:19:49;;;;;;;0.20;0.13;;;;;;;-142.37;100.00;59669.53;4897546;29;20043;-67
2021/07/20 10:22:27;;;;;;;1.45;0.30;;;;;;;-142.37;100.00;59669.53;4897957;29;20039;-68
2021/07/20 10:25:03;;;;;;;0.95;0.28;;;;;;;-142.37;100.00;59669.53;4898265;29;20048;-67
2021/07/20 10:27:39;;;;;;;0.57;0.20;;;;;;;-142.37;100.00;59669.53;4898337;29;20043;-67
2021/07/20 10:30:07;;;;;;;0.68;0.30;;;;;;;-142.37;100.00;59669.53;4898021;29;20036;-67
2021/07/20 10:32:33;;;;;;;0.40;0.30;;;;;;;-142.37;100.00;59669.53;4910049;29;20114;-67
2021/07/20 10:35:02;;;;;;;0.80;0.20;;;;;;;-142.37;100.00;59669.53;4954812;29;20034;-67
2021/07/20 10:37:32;;;;;;;0.65;0.30;;;;;;;-142.37;100.00;59669.53;5004126;28;20041;-65
2021/07/20 10:40:04;;;;;;;0.45;0.28;;;;;;;-142.37;100.00;59669.53;5015301;28;20025;-66
2021/07/20 10:42:59;;;;;;;0.95;0.20;;;;;;;-142.37;100.00;59669.53;5015476;28;20053;-67
2021/07/20 10:45:31;;;;;;;2.95;0.40;;;;;;;-142.37;100.00;59669.53;5030964;28;20029;-66
2021/07/20 10:48:15;;;;;;;0.50;0.13;;;;;;;-142.37;100.00;59669.53;5025932;28;20017;-66
2021/07/20 10:50:56;;;;;;;1.23;0.32;;;;;;;-142.37;100.00;59669.53;5033696;28;20092;-67
2021/07/20 10:53:35;;;;;;;1.10;0.20;;;;;;;-142.37;100.00;59669.53;5032641;28;20062;-66
2021/07/20 10:56:16;;;;;;;1.58;0.40;;;;;;;-142.37;100.00;59669.53;5028413;28;20045;-67
2021/07/20 10:58:53;;;;;;;0.57;0.28;;;;;;;-142.37;100.00;59669.53;5014051;28;20566;-66
2021/07/20 11:01:20;;;;;;;1.17;0.28;;;;;;;-142.37;100.00;59669.53;5015381;28;20024;-66
2021/07/20 11:04:14;;;;;;;0.40;0.22;;;;;;;-142.37;100.00;59669.53;5015109;28;20030;-67
2021/07/20 11:06:43;;;;;;;0.47;0.30;;;;;;;-142.37;100.00;59669.53;5015324;28;20021;-67
2021/07/20 11:09:30;;;;;;;1.08;0.40;;;;;;;-142.37;100.00;59669.53;5013515;28;20029;-67
2021/07/20 11:12:04;;;;;;;0.77;0.28;;;;;;;-142.37;100.00;59669.53;5013576;28;20030;-65
2021/07/20 11:14:34;;;;;;;0.93;0.28;;;;;;;-142.37;100.00;59669.53;5014908;28;20060;-66
2021/07/20 11:17:00;;;;;;;1.42;0.50;;;;;;;-142.37;100.00;59669.53;5014519;28;20362;-65
2021/07/20 11:19:28;;;;;;;1.73;0.32;;;;;;;-142.37;100.00;59669.53;5032699;28;20026;-64
2021/07/20 11:21:58;;;;;;;1.50;0.45;;;;;;;-142.37;100.00;59669.53;5033107;28;20421;-65
2021/07/20 11:24:25;;;;;;;0.70;0.22;;;;;;;-142.37;100.00;59669.53;5034621;28;20075;-66
2021/07/20 11:26:51;;;;;;;0.73;0.10;;;;;;;-142.37;100.00;59669.53;5034360;28;20026;-65